createdAt,value
2018-05-17T00:00:40.750Z,0.00
2018-05-17T00:01:40.674Z,0.00
2018-05-17T00:02:40.599Z,0.00
2018-05-17T00:03:40.511Z,0.00
2018-05-17T00:04:40.436Z,0.00
2018-05-17T00:05:40.365Z,0.00
2018-05-17T00:06:40.275Z,0.00
2018-05-17T00:07:40.199Z,0.00
2018-05-17T00:08:40.124Z,0.00
2018-05-17T00:09:40.037Z,0.00
2018-05-17T00:10:39.961Z,0.00
2018-05-17T00:11:39.886Z,0.00
2018-05-17T00:12:39.813Z,0.00
2018-05-17T00:13:39.727Z,0.00
2018-05-17T00:14:39.661Z,0.00
2018-05-17T00:15:39.576Z,0.00
2018-05-17T00:16:39.487Z,0.00
2018-05-17T00:17:39.437Z,0.00
2018-05-17T00:18:39.337Z,0.00
2018-05-17T00:19:39.258Z,0.00
2018-05-17T00:20:39.176Z,0.00
2018-05-17T00:21:39.101Z,0.00
2018-05-17T00:22:39.026Z,0.00
2018-05-17T00:23:38.938Z,0.00
2018-05-17T00:24:38.872Z,0.00
2018-05-17T00:25:38.788Z,0.00
2018-05-17T00:26:38.701Z,0.00
2018-05-17T00:27:38.627Z,0.00
2018-05-17T00:28:38.557Z,0.00
2018-05-17T00:29:38.463Z,0.00
2018-05-17T00:30:38.388Z,0.00
2018-05-17T00:31:38.328Z,0.00
2018-05-17T00:32:38.230Z,0.00
2018-05-17T00:33:38.154Z,0.00
2018-05-17T00:34:38.078Z,0.00
2018-05-17T00:35:37.990Z,0.00
2018-05-17T00:36:37.914Z,0.00
2018-05-17T00:37:37.840Z,0.00
2018-05-17T00:38:37.764Z,0.00
2018-05-17T00:39:37.678Z,0.00
2018-05-17T00:40:37.603Z,0.00
2018-05-17T00:41:37.528Z,0.00
2018-05-17T00:42:37.455Z,0.00
2018-05-17T00:43:37.365Z,0.00
2018-05-17T00:44:37.293Z,0.00
2018-05-17T00:45:37.215Z,0.00
2018-05-17T00:46:37.129Z,0.00
2018-05-17T00:47:37.058Z,0.00
2018-05-17T00:48:36.966Z,0.00
2018-05-17T00:49:36.891Z,0.00
2018-05-17T00:50:36.816Z,0.00
2018-05-17T00:51:36.730Z,0.00
2018-05-17T00:52:36.660Z,0.00
2018-05-17T00:53:36.580Z,0.00
2018-05-17T00:54:36.504Z,0.00
2018-05-17T00:55:36.420Z,0.00
2018-05-17T00:56:36.342Z,0.00
2018-05-17T00:57:36.266Z,0.00
2018-05-17T00:58:36.180Z,0.00
2018-05-17T00:59:36.106Z,0.00
2018-05-17T01:00:36.030Z,0.00
2018-05-17T01:01:35.942Z,0.00
2018-05-17T01:02:35.867Z,0.00
2018-05-17T01:03:35.796Z,0.00
2018-05-17T01:04:35.705Z,0.00
2018-05-17T01:05:35.631Z,0.00
2018-05-17T01:06:35.557Z,0.00
2018-05-17T01:07:35.467Z,0.00
2018-05-17T01:08:35.393Z,0.00
2018-05-17T01:09:35.318Z,0.00
2018-05-17T01:10:35.232Z,0.00
2018-05-17T01:11:35.156Z,0.00
2018-05-17T01:12:35.082Z,0.00
2018-05-17T01:13:34.997Z,0.00
2018-05-17T01:14:34.918Z,0.00
2018-05-17T01:15:34.845Z,0.00
2018-05-17T01:16:34.757Z,0.00
2018-05-17T01:17:34.683Z,0.00
2018-05-17T01:18:34.606Z,0.00
2018-05-17T01:19:34.522Z,0.00
2018-05-17T01:20:34.447Z,0.00
2018-05-17T01:21:34.369Z,0.00
2018-05-17T01:22:34.283Z,0.00
2018-05-17T01:23:34.212Z,0.00
2018-05-17T01:24:34.133Z,0.00
2018-05-17T01:25:34.044Z,0.00
2018-05-17T01:26:33.971Z,0.00
2018-05-17T01:27:33.909Z,0.00
2018-05-17T01:28:33.808Z,0.00
2018-05-17T01:29:33.739Z,0.00
2018-05-17T01:30:33.660Z,0.00
2018-05-17T01:31:33.571Z,0.00
2018-05-17T01:32:33.509Z,0.00
2018-05-17T01:33:33.420Z,0.00
2018-05-17T01:34:33.335Z,0.00
2018-05-17T01:35:33.259Z,0.00
2018-05-17T01:36:33.185Z,0.00
2018-05-17T01:37:33.098Z,0.00
2018-05-17T01:38:33.021Z,0.00
2018-05-17T01:39:32.947Z,0.00
2018-05-17T01:40:32.859Z,0.00
2018-05-17T01:41:32.785Z,0.00
2018-05-17T01:42:32.710Z,0.00
2018-05-17T01:43:32.622Z,0.00
2018-05-17T01:44:32.547Z,0.00
2018-05-17T01:45:32.472Z,0.00
2018-05-17T01:46:32.387Z,0.00
2018-05-17T01:47:32.310Z,0.00
2018-05-17T01:48:32.224Z,0.00
2018-05-17T01:49:32.148Z,0.00
2018-05-17T01:50:32.072Z,0.00
2018-05-17T01:51:31.986Z,0.00
2018-05-17T01:52:31.911Z,0.00
2018-05-17T01:53:31.837Z,0.00
2018-05-17T01:54:31.748Z,0.00
2018-05-17T01:55:31.673Z,0.00
2018-05-17T01:56:31.598Z,0.00
2018-05-17T01:57:31.511Z,0.00
2018-05-17T01:58:31.437Z,0.00
2018-05-17T01:59:31.363Z,0.00
2018-05-17T02:00:31.274Z,0.00
2018-05-17T02:01:31.199Z,0.00
2018-05-17T02:02:31.124Z,0.00
2018-05-17T02:03:31.038Z,0.00
2018-05-17T02:04:30.962Z,0.00
2018-05-17T02:05:30.875Z,0.00
2018-05-17T02:06:30.800Z,0.00
2018-05-17T02:07:30.725Z,0.00
2018-05-17T02:08:30.638Z,0.00
2018-05-17T02:09:30.562Z,0.00
2018-05-17T02:10:30.493Z,0.00
2018-05-17T02:11:30.400Z,0.00
2018-05-17T02:12:30.325Z,0.00
2018-05-17T02:13:30.250Z,0.00
2018-05-17T02:14:30.164Z,0.00
2018-05-17T02:15:30.089Z,0.00
2018-05-17T02:16:30.002Z,0.00
2018-05-17T02:17:29.941Z,0.00
2018-05-17T02:18:29.891Z,0.00
2018-05-17T02:19:29.768Z,0.00
2018-05-17T02:20:29.700Z,0.00
2018-05-17T02:21:29.693Z,0.00
2018-05-17T02:22:29.526Z,0.00
2018-05-17T02:23:29.451Z,0.00
2018-05-17T02:24:29.376Z,0.00
2018-05-17T02:25:29.290Z,0.00
2018-05-17T02:26:29.215Z,0.00
2018-05-17T02:27:29.128Z,0.00
2018-05-17T02:28:29.052Z,0.00
2018-05-17T02:29:28.992Z,0.00
2018-05-17T02:30:28.890Z,0.00
2018-05-17T02:31:28.822Z,0.00
2018-05-17T02:32:28.740Z,0.00
2018-05-17T02:33:28.652Z,0.00
2018-05-17T02:34:28.590Z,0.00
2018-05-17T02:35:28.503Z,0.00
2018-05-17T02:36:28.419Z,0.00
2018-05-17T02:37:28.341Z,0.00
2018-05-17T02:38:28.254Z,0.00
2018-05-17T02:39:28.192Z,0.00
2018-05-17T02:40:28.103Z,0.00
2018-05-17T02:41:28.019Z,0.00
2018-05-17T02:42:27.942Z,0.00
2018-05-17T02:43:27.856Z,0.00
2018-05-17T02:44:27.792Z,0.00
2018-05-17T02:45:27.704Z,0.00
2018-05-17T02:46:27.622Z,0.00
2018-05-17T02:47:27.542Z,0.00
2018-05-17T02:48:27.468Z,0.00
2018-05-17T02:49:27.392Z,0.00
2018-05-17T02:50:27.309Z,0.00
2018-05-17T02:51:27.229Z,0.00
2018-05-17T02:52:27.144Z,0.00
2018-05-17T02:53:27.068Z,0.00
2018-05-17T02:54:26.994Z,0.00
2018-05-17T02:55:26.908Z,0.00
2018-05-17T02:56:26.830Z,0.00
2018-05-17T02:57:26.743Z,0.00
2018-05-17T02:58:26.669Z,0.00
2018-05-17T02:59:26.594Z,0.00
2018-05-17T03:00:26.506Z,0.00
2018-05-17T03:01:26.433Z,0.00
2018-05-17T03:02:26.348Z,0.00
2018-05-17T03:03:26.296Z,0.00
2018-05-17T03:04:26.194Z,0.00
2018-05-17T03:05:26.106Z,0.00
2018-05-17T03:06:26.032Z,0.00
2018-05-17T03:07:25.945Z,0.00
2018-05-17T03:08:25.871Z,5.63
2018-05-17T03:09:25.799Z,5.63
2018-05-17T03:10:25.706Z,5.63
2018-05-17T03:11:25.638Z,5.63
2018-05-17T03:12:25.556Z,5.63
2018-05-17T03:13:25.471Z,5.63
2018-05-17T03:14:25.397Z,5.63
2018-05-17T03:15:25.307Z,5.63
2018-05-17T03:16:25.233Z,5.63
2018-05-17T03:17:25.161Z,5.63
2018-05-17T03:18:25.071Z,11.25
2018-05-17T03:19:24.996Z,11.25
2018-05-17T03:20:24.908Z,11.25
2018-05-17T03:21:24.832Z,11.25
2018-05-17T03:22:24.759Z,11.25
2018-05-17T03:23:24.673Z,11.25
2018-05-17T03:24:24.601Z,11.25
2018-05-17T03:25:24.510Z,16.88
2018-05-17T03:26:24.433Z,16.88
2018-05-17T03:27:24.358Z,16.88
2018-05-17T03:28:24.272Z,16.88
2018-05-17T03:29:24.197Z,16.88
2018-05-17T03:30:24.122Z,16.88
2018-05-17T03:31:24.036Z,16.88
2018-05-17T03:32:23.959Z,22.50
2018-05-17T03:33:23.872Z,22.50
2018-05-17T03:34:23.797Z,22.50
2018-05-17T03:35:23.722Z,22.50
2018-05-17T03:36:23.634Z,22.50
2018-05-17T03:37:23.560Z,22.50
2018-05-17T03:38:23.473Z,22.50
2018-05-17T03:39:23.398Z,22.50
2018-05-17T03:40:23.323Z,28.13
2018-05-17T03:41:23.235Z,28.13
2018-05-17T03:42:23.160Z,28.13
2018-05-17T03:43:23.074Z,28.13
2018-05-17T03:44:22.999Z,28.13
2018-05-17T03:45:22.925Z,28.13
2018-05-17T03:46:22.836Z,28.13
2018-05-17T03:47:22.761Z,28.13
2018-05-17T03:48:22.675Z,28.13
2018-05-17T03:49:22.602Z,28.13
2018-05-17T03:50:22.525Z,28.13
2018-05-17T03:51:22.436Z,28.13
2018-05-17T03:52:22.362Z,28.13
2018-05-17T03:53:22.286Z,33.75
2018-05-17T03:54:22.200Z,33.75
2018-05-17T03:55:22.125Z,33.75
2018-05-17T03:56:22.037Z,33.75
2018-05-17T03:57:21.962Z,33.75
2018-05-17T03:58:21.888Z,33.75
2018-05-17T03:59:21.801Z,33.75
2018-05-17T04:00:21.725Z,33.75
2018-05-17T04:01:21.702Z,33.75
2018-05-17T04:02:21.562Z,33.75
2018-05-17T04:03:21.482Z,39.38
2018-05-17T04:04:21.401Z,39.38
2018-05-17T04:05:21.332Z,39.38
2018-05-17T04:06:21.241Z,39.38
2018-05-17T04:07:21.176Z,39.38
2018-05-17T04:08:21.077Z,45.00
2018-05-17T04:09:21.006Z,45.00
2018-05-17T04:10:20.927Z,45.00
2018-05-17T04:11:20.838Z,45.00
2018-05-17T04:12:20.777Z,45.00
2018-05-17T04:13:20.689Z,50.63
2018-05-17T04:14:20.603Z,50.63
2018-05-17T04:15:20.527Z,50.63
2018-05-17T04:16:20.439Z,50.63
2018-05-17T04:17:20.366Z,56.25
2018-05-17T04:18:20.289Z,56.25
2018-05-17T04:19:20.203Z,56.25
2018-05-17T04:20:20.127Z,56.25
2018-05-17T04:21:20.042Z,61.88
2018-05-17T04:22:19.966Z,61.88
2018-05-17T04:23:19.882Z,61.88
2018-05-17T04:24:19.803Z,61.88
2018-05-17T04:25:19.728Z,67.50
2018-05-17T04:26:19.640Z,67.50
2018-05-17T04:27:19.565Z,67.50
2018-05-17T04:28:19.479Z,73.13
2018-05-17T04:29:19.492Z,73.13
2018-05-17T04:30:19.338Z,73.13
2018-05-17T04:31:19.243Z,78.75
2018-05-17T04:32:19.166Z,84.38
2018-05-17T04:33:19.091Z,90.00
2018-05-17T04:34:19.005Z,90.00
2018-05-17T04:35:18.997Z,95.63
2018-05-17T04:36:18.842Z,101.25
2018-05-17T04:37:18.780Z,101.25
2018-05-17T04:38:18.691Z,106.88
2018-05-17T04:39:18.605Z,106.88
2018-05-17T04:40:18.530Z,106.88
2018-05-17T04:41:18.442Z,106.88
2018-05-17T04:42:18.368Z,101.25
2018-05-17T04:43:18.292Z,112.50
2018-05-17T04:44:18.206Z,106.88
2018-05-17T04:45:18.131Z,106.88
2018-05-17T04:46:18.055Z,106.88
2018-05-17T04:47:17.971Z,106.88
2018-05-17T04:48:17.893Z,112.50
2018-05-17T04:49:17.807Z,112.50
2018-05-17T04:50:17.732Z,112.50
2018-05-17T04:51:17.656Z,112.50
2018-05-17T04:52:17.570Z,118.13
2018-05-17T04:53:17.494Z,118.13
2018-05-17T04:54:17.418Z,123.75
2018-05-17T04:55:17.332Z,123.75
2018-05-17T04:56:17.258Z,129.38
2018-05-17T04:57:17.182Z,135.00
2018-05-17T04:58:17.094Z,135.00
2018-05-17T04:59:17.021Z,140.63
2018-05-17T05:00:16.943Z,140.63
2018-05-17T05:01:16.859Z,140.63
2018-05-17T05:02:16.783Z,146.25
2018-05-17T05:03:16.709Z,151.88
2018-05-17T05:04:16.619Z,157.50
2018-05-17T05:05:16.548Z,163.13
2018-05-17T05:06:16.471Z,168.75
2018-05-17T05:07:16.384Z,180.00
2018-05-17T05:08:16.310Z,185.63
2018-05-17T05:09:16.233Z,185.63
2018-05-17T05:10:16.145Z,185.63
2018-05-17T05:11:16.083Z,191.25
2018-05-17T05:12:15.995Z,191.25
2018-05-17T05:13:15.909Z,196.88
2018-05-17T05:14:15.834Z,196.88
2018-05-17T05:15:15.760Z,196.88
2018-05-17T05:16:15.687Z,196.88
2018-05-17T05:17:15.595Z,202.50
2018-05-17T05:18:15.522Z,202.50
2018-05-17T05:19:15.434Z,202.50
2018-05-17T05:20:15.359Z,196.88
2018-05-17T05:21:15.285Z,202.50
2018-05-17T05:22:15.216Z,202.50
2018-05-17T05:23:15.122Z,202.50
2018-05-17T05:24:15.047Z,208.13
2018-05-17T05:25:15.055Z,213.75
2018-05-17T05:26:14.884Z,219.38
2018-05-17T05:27:14.815Z,230.63
2018-05-17T05:28:14.735Z,241.88
2018-05-17T05:29:14.648Z,253.13
2018-05-17T05:30:14.573Z,264.38
2018-05-17T05:31:14.499Z,275.63
2018-05-17T05:32:14.423Z,275.63
2018-05-17T05:33:14.336Z,275.63
2018-05-17T05:34:14.261Z,264.38
2018-05-17T05:35:14.186Z,258.75
2018-05-17T05:36:14.098Z,253.13
2018-05-17T05:37:14.023Z,247.50
2018-05-17T05:38:13.948Z,241.88
2018-05-17T05:39:13.862Z,236.25
2018-05-17T05:40:13.787Z,230.63
2018-05-17T05:41:13.712Z,225.00
2018-05-17T05:42:13.637Z,213.75
2018-05-17T05:43:13.608Z,213.75
2018-05-17T05:44:13.475Z,208.13
2018-05-17T05:45:13.398Z,208.13
2018-05-17T05:46:13.324Z,202.50
2018-05-17T05:47:13.237Z,180.00
2018-05-17T05:48:13.163Z,174.38
2018-05-17T05:49:13.142Z,168.75
2018-05-17T05:50:12.999Z,163.13
2018-05-17T05:51:12.924Z,157.50
2018-05-17T05:52:12.851Z,157.50
2018-05-17T05:53:12.764Z,163.13
2018-05-17T05:54:12.688Z,163.13
2018-05-17T05:55:12.614Z,163.13
2018-05-17T05:56:12.540Z,163.13
2018-05-17T05:57:12.453Z,168.75
2018-05-17T05:58:12.378Z,168.75
2018-05-17T05:59:12.302Z,174.38
2018-05-17T06:00:12.217Z,180.00
2018-05-17T06:01:12.144Z,180.00
2018-05-17T06:02:12.065Z,185.63
2018-05-17T06:03:11.978Z,185.63
2018-05-17T06:04:11.902Z,180.00
2018-05-17T06:05:11.826Z,185.63
2018-05-17T06:06:11.752Z,185.63
2018-05-17T06:07:11.664Z,191.25
2018-05-17T06:08:11.590Z,191.25
2018-05-17T06:09:11.518Z,202.50
2018-05-17T06:10:11.441Z,208.13
2018-05-17T06:11:11.356Z,219.38
2018-05-17T06:12:11.290Z,219.38
2018-05-17T06:13:11.207Z,225.00
2018-05-17T06:14:11.122Z,225.00
2018-05-17T06:15:11.042Z,236.25
2018-05-17T06:16:10.967Z,241.88
2018-05-17T06:17:10.890Z,247.50
2018-05-17T06:18:10.802Z,258.75
2018-05-17T06:19:10.728Z,264.38
2018-05-17T06:20:10.652Z,281.25
2018-05-17T06:21:10.566Z,292.50
2018-05-17T06:22:10.490Z,303.75
2018-05-17T06:23:10.421Z,320.63
2018-05-17T06:24:10.345Z,331.88
2018-05-17T06:25:10.254Z,343.13
2018-05-17T06:26:10.192Z,360.00
2018-05-17T06:27:10.103Z,371.25
2018-05-17T06:28:10.029Z,376.88
2018-05-17T06:29:09.943Z,382.50
2018-05-17T06:30:09.869Z,388.13
2018-05-17T06:31:09.793Z,382.50
2018-05-17T06:32:09.719Z,382.50
2018-05-17T06:33:09.642Z,376.88
2018-05-17T06:34:09.554Z,365.63
2018-05-17T06:35:09.480Z,360.00
2018-05-17T06:36:09.405Z,354.38
2018-05-17T06:37:09.329Z,343.13
2018-05-17T06:38:09.244Z,331.88
2018-05-17T06:39:09.168Z,326.25
2018-05-17T06:40:09.094Z,315.00
2018-05-17T06:41:09.022Z,315.00
2018-05-17T06:42:08.944Z,298.13
2018-05-17T06:43:08.855Z,286.88
2018-05-17T06:44:08.781Z,281.25
2018-05-17T06:45:08.707Z,270.00
2018-05-17T06:46:08.631Z,264.38
2018-05-17T06:47:08.556Z,264.38
2018-05-17T06:48:08.470Z,258.75
2018-05-17T06:49:08.395Z,253.13
2018-05-17T06:50:08.320Z,253.13
2018-05-17T06:51:08.245Z,258.75
2018-05-17T06:52:08.169Z,253.13
2018-05-17T06:53:08.082Z,247.50
2018-05-17T06:54:08.007Z,247.50
2018-05-17T06:55:07.933Z,247.50
2018-05-17T06:56:07.857Z,247.50
2018-05-17T06:57:07.781Z,236.25
2018-05-17T06:58:07.695Z,230.63
2018-05-17T06:59:07.620Z,241.88
2018-05-17T07:00:07.546Z,230.63
2018-05-17T07:01:07.483Z,241.88
2018-05-17T07:02:07.396Z,264.38
2018-05-17T07:03:07.307Z,270.00
2018-05-17T07:04:07.245Z,281.25
2018-05-17T07:05:07.157Z,281.25
2018-05-17T07:06:07.085Z,286.88
2018-05-17T07:07:07.007Z,292.50
2018-05-17T07:08:06.922Z,303.75
2018-05-17T07:09:06.846Z,303.75
2018-05-17T07:10:06.772Z,309.38
2018-05-17T07:11:06.697Z,315.00
2018-05-17T07:12:06.622Z,320.63
2018-05-17T07:13:06.546Z,331.88
2018-05-17T07:14:06.458Z,337.50
2018-05-17T07:15:06.384Z,365.63
2018-05-17T07:16:06.310Z,376.88
2018-05-17T07:17:06.248Z,382.50
2018-05-17T07:18:06.273Z,371.25
2018-05-17T07:19:06.072Z,376.88
2018-05-17T07:20:06.248Z,376.88
2018-05-17T07:21:05.923Z,405.00
2018-05-17T07:22:05.848Z,399.38
2018-05-17T07:23:05.773Z,410.63
2018-05-17T07:24:05.786Z,410.63
2018-05-17T07:25:05.611Z,416.25
2018-05-17T07:26:05.535Z,466.88
2018-05-17T07:27:05.460Z,466.88
2018-05-17T07:28:05.388Z,466.88
2018-05-17T07:29:05.311Z,472.50
2018-05-17T07:30:05.236Z,478.13
2018-05-17T07:31:05.160Z,478.13
2018-05-17T07:32:05.103Z,466.88
2018-05-17T07:33:05.105Z,444.38
2018-05-17T07:34:04.936Z,466.88
2018-05-17T07:35:04.861Z,472.50
2018-05-17T07:36:04.787Z,450.00
2018-05-17T07:37:04.711Z,483.75
2018-05-17T07:38:04.637Z,506.25
2018-05-17T07:39:04.562Z,562.50
2018-05-17T07:40:04.738Z,556.88
2018-05-17T07:41:04.412Z,556.88
2018-05-17T07:42:04.338Z,562.50
2018-05-17T07:43:04.262Z,568.13
2018-05-17T07:44:04.191Z,573.75
2018-05-17T07:45:04.115Z,568.13
2018-05-17T07:46:04.038Z,568.13
2018-05-17T07:47:03.964Z,545.63
2018-05-17T07:48:03.900Z,517.50
2018-05-17T07:49:03.827Z,551.25
2018-05-17T07:50:04.002Z,371.25
2018-05-17T07:51:03.677Z,506.25
2018-05-17T07:52:03.678Z,540.00
2018-05-17T07:53:03.539Z,517.50
2018-05-17T07:54:03.464Z,562.50
2018-05-17T07:55:03.391Z,562.50
2018-05-17T07:56:03.327Z,545.63
2018-05-17T07:57:03.240Z,590.63
2018-05-17T07:58:03.178Z,630.00
2018-05-17T07:59:03.104Z,720.00
2018-05-17T08:00:03.327Z,770.63
2018-05-17T08:01:02.953Z,753.75
2018-05-17T08:02:02.890Z,478.13
2018-05-17T08:03:02.816Z,472.50
2018-05-17T08:04:02.739Z,528.75
2018-05-17T08:05:02.665Z,613.13
2018-05-17T08:06:02.592Z,641.25
2018-05-17T08:07:02.529Z,652.50
2018-05-17T08:08:02.457Z,601.88
2018-05-17T08:09:02.384Z,1001.25
2018-05-17T08:10:02.315Z,933.75
2018-05-17T08:11:02.240Z,826.88
2018-05-17T08:12:02.166Z,821.25
2018-05-17T08:13:02.091Z,967.50
2018-05-17T08:14:02.031Z,1080.00
2018-05-17T08:15:01.955Z,1125.00
2018-05-17T08:16:01.881Z,1192.50
2018-05-17T08:17:01.824Z,1310.63
2018-05-17T08:18:01.751Z,1625.63
2018-05-17T08:19:01.667Z,1906.88
2018-05-17T08:20:01.860Z,2165.63
2018-05-17T08:21:01.530Z,753.75
2018-05-17T08:22:01.481Z,1096.88
2018-05-17T08:23:01.392Z,1040.63
2018-05-17T08:24:01.331Z,821.25
2018-05-17T08:25:01.257Z,714.38
2018-05-17T08:26:01.181Z,1006.88
2018-05-17T08:27:01.117Z,1316.25
2018-05-17T08:28:01.043Z,1569.38
2018-05-17T08:29:01.072Z,2041.88
2018-05-17T08:30:00.906Z,1372.50
2018-05-17T08:31:00.843Z,438.75
2018-05-17T08:32:00.768Z,450.00
2018-05-17T08:33:00.706Z,590.63
2018-05-17T08:34:00.632Z,950.63
2018-05-17T08:35:00.557Z,888.75
2018-05-17T08:36:00.580Z,804.38
2018-05-17T08:37:00.419Z,832.50
2018-05-17T08:38:00.344Z,703.13
2018-05-17T08:39:00.282Z,652.50
2018-05-17T08:40:00.208Z,562.50
2018-05-17T08:41:00.144Z,793.13
2018-05-17T08:42:00.069Z,843.75
2018-05-17T08:42:59.997Z,658.13
2018-05-17T08:43:59.934Z,585.00
2018-05-17T08:44:59.857Z,675.00
2018-05-17T08:45:59.794Z,680.63
2018-05-17T08:46:59.722Z,714.38
2018-05-17T08:47:59.644Z,708.75
2018-05-17T08:48:59.588Z,736.88
2018-05-17T08:49:59.509Z,787.50
2018-05-17T08:50:59.433Z,787.50
2018-05-17T08:51:59.371Z,855.00
2018-05-17T08:52:59.296Z,759.38
2018-05-17T08:53:59.234Z,748.13
2018-05-17T08:54:59.159Z,691.88
2018-05-17T08:55:59.096Z,877.50
2018-05-17T08:56:59.021Z,1001.25
2018-05-17T08:57:58.958Z,1029.38
2018-05-17T08:58:58.886Z,956.25
2018-05-17T08:59:58.812Z,1243.13
2018-05-17T09:00:58.759Z,1293.75
2018-05-17T09:01:58.684Z,815.63
2018-05-17T09:02:58.610Z,821.25
2018-05-17T09:03:58.560Z,596.25
2018-05-17T09:04:58.471Z,613.13
2018-05-17T09:05:58.410Z,973.13
2018-05-17T09:06:58.335Z,1260.00
2018-05-17T09:07:58.272Z,641.25
2018-05-17T09:08:58.197Z,759.38
2018-05-17T09:09:58.138Z,916.88
2018-05-17T09:10:58.060Z,990.00
2018-05-17T09:11:57.997Z,973.13
2018-05-17T09:12:57.923Z,1080.00
2018-05-17T09:13:57.861Z,1102.50
2018-05-17T09:14:57.814Z,1158.75
2018-05-17T09:15:57.723Z,1378.13
2018-05-17T09:16:57.649Z,1580.63
2018-05-17T09:17:57.589Z,860.63
2018-05-17T09:18:57.566Z,731.25
2018-05-17T09:19:57.448Z,916.88
2018-05-17T09:20:57.374Z,1226.25
2018-05-17T09:21:57.311Z,939.38
2018-05-17T09:22:57.237Z,1811.25
2018-05-17T09:23:57.174Z,1597.50
2018-05-17T09:24:57.098Z,950.63
2018-05-17T09:25:57.040Z,1614.38
2018-05-17T09:26:56.962Z,1333.13
2018-05-17T09:27:56.899Z,1597.50
2018-05-17T09:28:56.824Z,1428.75
2018-05-17T09:29:56.762Z,1642.50
2018-05-17T09:30:56.690Z,1445.63
2018-05-17T09:31:56.622Z,1473.75
2018-05-17T09:32:56.551Z,1321.88
2018-05-17T09:33:56.475Z,855.00
2018-05-17T09:34:56.414Z,1001.25
2018-05-17T09:35:56.339Z,669.38
2018-05-17T09:36:56.275Z,1136.25
2018-05-17T09:37:56.200Z,798.75
2018-05-17T09:38:56.125Z,753.75
2018-05-17T09:39:56.068Z,804.38
2018-05-17T09:40:56.050Z,753.75
2018-05-17T09:41:55.925Z,765.00
2018-05-17T09:42:55.850Z,832.50
2018-05-17T09:43:55.775Z,894.38
2018-05-17T09:44:55.714Z,804.38
2018-05-17T09:45:55.639Z,871.88
2018-05-17T09:46:55.564Z,804.38
2018-05-17T09:47:55.501Z,967.50
2018-05-17T09:48:55.426Z,911.25
2018-05-17T09:49:55.351Z,911.25
2018-05-17T09:50:55.277Z,1074.38
2018-05-17T09:51:55.214Z,815.63
2018-05-17T09:52:55.139Z,1012.50
2018-05-17T09:53:55.064Z,1164.38
2018-05-17T09:54:55.038Z,1293.75
2018-05-17T09:55:54.926Z,1209.38
2018-05-17T09:56:54.852Z,1985.63
2018-05-17T09:57:54.793Z,978.75
2018-05-17T09:58:54.714Z,1558.13
2018-05-17T09:59:54.641Z,1305.00
2018-05-17T10:00:54.569Z,967.50
2018-05-17T10:01:54.501Z,995.63
2018-05-17T10:02:54.440Z,871.88
2018-05-17T10:03:54.352Z,1001.25
2018-05-17T10:04:54.278Z,967.50
2018-05-17T10:05:54.215Z,1012.50
2018-05-17T10:06:54.140Z,877.50
2018-05-17T10:07:54.071Z,905.63
2018-05-17T10:08:54.089Z,826.88
2018-05-17T10:09:53.945Z,939.38
2018-05-17T10:10:53.853Z,922.50
2018-05-17T10:11:53.778Z,888.75
2018-05-17T10:12:53.716Z,905.63
2018-05-17T10:13:53.642Z,894.38
2018-05-17T10:14:53.572Z,1046.25
2018-05-17T10:15:53.492Z,990.00
2018-05-17T10:16:53.442Z,770.63
2018-05-17T10:17:53.353Z,826.88
2018-05-17T10:18:53.285Z,866.25
2018-05-17T10:19:53.204Z,995.63
2018-05-17T10:20:53.144Z,1001.25
2018-05-17T10:21:53.085Z,928.13
2018-05-17T10:22:52.991Z,838.13
2018-05-17T10:23:52.918Z,804.38
2018-05-17T10:24:52.855Z,798.75
2018-05-17T10:25:52.780Z,843.75
2018-05-17T10:26:52.704Z,1035.00
2018-05-17T10:27:52.633Z,1119.38
2018-05-17T10:28:52.556Z,990.00
2018-05-17T10:29:52.497Z,888.75
2018-05-17T10:30:52.419Z,815.63
2018-05-17T10:31:52.343Z,765.00
2018-05-17T10:32:52.274Z,950.63
2018-05-17T10:33:52.205Z,866.25
2018-05-17T10:34:52.143Z,753.75
2018-05-17T10:35:52.055Z,804.38
2018-05-17T10:36:51.984Z,1170.00
2018-05-17T10:37:51.918Z,2064.38
2018-05-17T10:38:51.846Z,2086.88
2018-05-17T10:39:51.769Z,2165.63
2018-05-17T10:40:51.693Z,2171.25
2018-05-17T10:41:51.631Z,1546.88
2018-05-17T10:42:51.556Z,2047.50
2018-05-17T10:43:51.481Z,1226.25
2018-05-17T10:44:51.419Z,1923.75
2018-05-17T10:45:51.344Z,1237.50
2018-05-17T10:46:51.270Z,1181.25
2018-05-17T10:47:51.207Z,1130.63
2018-05-17T10:48:51.139Z,1288.13
2018-05-17T10:49:51.073Z,1884.38
2018-05-17T10:50:50.997Z,1918.13
2018-05-17T10:51:50.921Z,1935.00
2018-05-17T10:52:50.859Z,2323.13
2018-05-17T10:53:50.782Z,3403.13
2018-05-17T10:54:50.728Z,3988.13
2018-05-17T10:55:50.646Z,3577.50
2018-05-17T10:56:50.582Z,3262.50
2018-05-17T10:57:50.508Z,3178.13
2018-05-17T10:58:50.446Z,3504.38
2018-05-17T10:59:50.373Z,3330.00
2018-05-17T11:00:50.308Z,3285.00
2018-05-17T11:01:50.233Z,3279.38
2018-05-17T11:02:50.174Z,3217.50
2018-05-17T11:03:50.108Z,3121.88
2018-05-17T11:04:50.034Z,3369.38
2018-05-17T11:05:49.972Z,3645.00
2018-05-17T11:06:49.909Z,3763.13
2018-05-17T11:07:49.833Z,3583.13
2018-05-17T11:08:49.772Z,2272.50
2018-05-17T11:09:49.722Z,3678.75
2018-05-17T11:10:49.634Z,3667.50
2018-05-17T11:11:49.573Z,3695.63
2018-05-17T11:12:49.522Z,3723.75
2018-05-17T11:13:49.435Z,3706.88
2018-05-17T11:14:49.376Z,3841.88
2018-05-17T11:15:49.310Z,3825.00
2018-05-17T11:16:49.248Z,3836.25
2018-05-17T11:17:49.173Z,3751.88
2018-05-17T11:18:49.110Z,3780.00
2018-05-17T11:19:49.049Z,3830.63
2018-05-17T11:20:48.985Z,3712.50
2018-05-17T11:21:48.911Z,3774.38
2018-05-17T11:22:48.849Z,3870.00
2018-05-17T11:23:48.789Z,3948.75
2018-05-17T11:24:48.724Z,3965.63
2018-05-17T11:25:48.678Z,3971.25
2018-05-17T11:26:48.585Z,3796.88
2018-05-17T11:27:48.524Z,3740.63
2018-05-17T11:28:48.461Z,3667.50
2018-05-17T11:29:48.401Z,3695.63
2018-05-17T11:30:48.327Z,1710.00
2018-05-17T11:31:48.261Z,3763.13
2018-05-17T11:32:48.200Z,3667.50
2018-05-17T11:33:48.136Z,3690.00
2018-05-17T11:34:48.074Z,3605.63
2018-05-17T11:35:48.012Z,3757.50
2018-05-17T11:36:47.937Z,3909.38
2018-05-17T11:37:47.875Z,3583.13
2018-05-17T11:38:47.812Z,2418.75
2018-05-17T11:40:47.687Z,984.38
2018-05-17T11:41:47.613Z,900.00
2018-05-17T11:42:47.551Z,793.13
2018-05-17T11:43:47.492Z,810.00
2018-05-17T11:44:47.434Z,1265.63
2018-05-17T11:45:47.351Z,3701.25
2018-05-17T11:46:47.288Z,916.88
2018-05-17T11:47:47.226Z,3954.38
2018-05-17T11:48:47.154Z,3858.75
2018-05-17T11:49:47.088Z,3931.88
2018-05-17T11:50:47.027Z,3791.25
2018-05-17T11:51:46.952Z,3892.50
2018-05-17T11:52:46.888Z,3965.63
2018-05-17T11:53:46.816Z,3841.88
2018-05-17T11:54:46.758Z,3515.63
2018-05-17T11:55:46.689Z,3223.13
2018-05-17T11:56:46.626Z,3678.75
2018-05-17T11:57:46.554Z,3718.13
2018-05-17T11:58:46.493Z,3729.38
2018-05-17T11:59:46.415Z,3841.88
2018-05-17T12:00:46.354Z,3577.50
2018-05-17T12:01:46.289Z,3453.75
2018-05-17T12:02:46.262Z,2778.75
2018-05-17T12:03:46.154Z,2857.50
2018-05-17T12:04:46.098Z,1738.13
2018-05-17T12:05:46.015Z,2053.13
2018-05-17T12:06:45.953Z,3380.63
2018-05-17T12:07:45.891Z,3476.25
2018-05-17T12:08:45.816Z,3358.13
2018-05-17T12:09:45.753Z,3105.00
2018-05-17T12:10:45.690Z,2767.50
2018-05-17T12:11:45.628Z,2700.00
2018-05-17T12:12:45.553Z,2975.63
2018-05-17T12:13:45.490Z,2570.63
2018-05-17T12:14:45.428Z,3380.63
2018-05-17T12:15:45.354Z,3268.13
2018-05-17T12:16:45.295Z,3296.25
2018-05-17T12:17:45.230Z,3234.38
2018-05-17T12:18:45.154Z,3127.50
2018-05-17T12:19:45.106Z,3048.75
2018-05-17T12:20:45.033Z,2880.00
2018-05-17T12:21:44.966Z,2722.50
2018-05-17T12:22:44.891Z,2874.38
2018-05-17T12:23:44.829Z,2570.63
2018-05-17T12:24:44.767Z,2536.88
2018-05-17T12:25:44.706Z,2638.13
2018-05-17T12:26:44.638Z,2632.50
2018-05-17T12:27:44.567Z,2868.75
2018-05-17T12:28:44.505Z,2784.38
2018-05-17T12:29:44.431Z,2812.50
2018-05-17T12:30:44.367Z,2801.25
2018-05-17T12:31:44.367Z,2649.38
2018-05-17T12:32:44.231Z,2902.50
2018-05-17T12:33:44.168Z,3037.50
2018-05-17T12:34:44.095Z,3043.13
2018-05-17T12:35:44.031Z,2992.50
2018-05-17T12:36:43.969Z,2925.00
2018-05-17T12:37:43.893Z,2863.13
2018-05-17T12:38:43.832Z,2778.75